Ube, Japan
Current Conditions -  °F | °C
As of 10:00 AM on Sunday 23 Nov 2014 (Local Time) from RJDC Reporting Station
Broken Clouds Broken Clouds  
Wind Chill: 61°   Ceiling: Unl
Heat Index: 61°   Visibility: 6mi
Dew Point: 50°   Wind: 3mph
Humidity: 68%   Direction: 160°SSE
Pressure: 30.24"   Gusts: NA
Location:  33.94°N, 131.24°E
Report Text: RJDC 230100Z 16003KT 110V200 9999 FEW025 BKN/// 16/10 Q1024
Loading
Personal Weather Stations






























Interactive Weather Map New forecast layout! Learn more

10-Day Weather Forecast

Advertisements
Track Severe Weather on mobile